Time;durP1;ratioP1;P1;durP2;ratioP2;P2;SDS_P1;SDS_P2;PMS_P1;PMS_P2;Temp;Humidity;BMP_temperature;BMP_pressure;BME280_temperature;BME280_humidity;BME280_pressure;Samples;Min_cycle;Max_cycle;Signal;HPM_P1;HPM_P2
2021/04/20 00:02:02;;;;;;;7.22;5.50;;;;;;;7.34;76.88;98851.89;1636715;86;21720;-57
2021/04/20 00:04:30;;;;;;;5.92;5.33;;;;;;;7.31;76.82;98856.67;1635548;86;21152;-57
2021/04/20 00:06:58;;;;;;;6.60;6.00;;;;;;;7.27;76.78;98852.72;1640611;86;21161;-57
2021/04/20 00:09:25;;;;;;;8.23;6.90;;;;;;;7.25;76.95;98852.86;1649570;85;21424;-59
2021/04/20 00:11:53;;;;;;;8.30;6.58;;;;;;;7.23;77.12;98851.38;1648283;85;21185;-57
2021/04/20 00:14:20;;;;;;;6.65;5.95;;;;;;;7.21;77.11;98850.23;1648171;85;21034;-57
2021/04/20 00:16:47;;;;;;;7.35;5.92;;;;;;;7.20;77.11;98844.59;1648294;85;21241;-57
2021/04/20 00:19:15;;;;;;;6.97;6.37;;;;;;;7.20;77.11;98846.41;1648390;85;21192;-57
2021/04/20 00:21:43;;;;;;;9.98;7.28;;;;;;;7.19;77.12;98850.06;1648289;85;21415;-57
2021/04/20 00:24:11;;;;;;;9.15;8.25;;;;;;;7.16;77.14;98846.42;1648210;85;20995;-58
2021/04/20 00:26:39;;;;;;;8.88;7.37;;;;;;;7.10;77.23;98842.61;1648258;85;21162;-59
2021/04/20 00:29:07;;;;;;;8.08;7.28;;;;;;;7.07;77.25;98843.41;1647364;85;21621;-58
2021/04/20 00:31:34;;;;;;;9.43;7.65;;;;;;;7.01;77.37;98834.34;1665903;85;21654;-57
2021/04/20 00:34:01;;;;;;;7.20;6.50;;;;;;;6.99;77.47;98838.94;1678710;85;21518;-58
2021/04/20 00:36:29;;;;;;;7.45;6.47;;;;;;;6.97;77.55;98830.84;1678675;85;21190;-57
2021/04/20 00:38:57;;;;;;;6.97;6.30;;;;;;;6.93;77.72;98830.85;1678727;85;21040;-57
2021/04/20 00:41:25;;;;;;;7.03;6.40;;;;;;;6.91;77.89;98829.67;1666524;85;21191;-57
2021/04/20 00:43:52;;;;;;;8.08;6.78;;;;;;;6.90;78.00;98823.23;1672440;85;21176;-58
2021/04/20 00:46:21;;;;;;;8.60;7.03;;;;;;;6.86;78.10;98821.41;1678711;85;21206;-59
2021/04/20 00:48:48;;;;;;;7.87;7.10;;;;;;;6.80;78.13;98814.94;1678646;85;21044;-57
2021/04/20 00:51:17;;;;;;;7.37;6.72;;;;;;;6.74;78.13;98814.30;1638614;85;21657;-59
2021/04/20 00:53:46;;;;;;;7.75;6.22;;;;;;;6.70;78.29;98813.47;1676013;84;21105;-56
2021/04/20 00:56:18;;;;;;;7.12;6.45;;;;;;;6.66;78.48;98814.76;1672599;84;21096;-60
2021/04/20 00:58:45;;;;;;;7.75;6.95;;;;;;;6.62;78.62;98808.16;1667578;84;22585;-57
2021/04/20 01:01:12;;;;;;;7.92;7.17;;;;;;;6.57;78.72;98808.61;1663980;84;21047;-57
2021/04/20 01:03:40;;;;;;;8.20;7.47;;;;;;;6.52;78.96;98816.20;1667441;84;21224;-57
2021/04/20 01:06:07;;;;;;;10.28;9.28;;;;;;;6.49;79.17;98813.07;1667391;84;21039;-57
2021/04/20 01:08:35;;;;;;;9.20;8.10;;;;;;;6.49;79.31;98815.71;1665477;84;21582;-58
2021/04/20 01:11:04;;;;;;;8.10;7.40;;;;;;;6.50;79.27;98810.74;1664484;84;21387;-58
2021/04/20 01:13:33;;;;;;;8.38;7.55;;;;;;;6.46;79.22;98813.39;1703627;82;21215;-57
2021/04/20 01:16:00;;;;;;;9.38;8.48;;;;;;;6.44;79.18;98810.09;1703797;82;21514;-57
2021/04/20 01:18:33;;;;;;;8.18;7.37;;;;;;;6.38;79.18;98800.14;1703695;82;21061;-57
2021/04/20 01:21:05;;;;;;;8.20;7.37;;;;;;;6.30;79.33;98796.16;1703726;82;21132;-57
2021/04/20 01:23:50;;;;;;;9.28;7.53;;;;;;;6.23;79.58;98798.09;1670793;84;21281;-57
2021/04/20 01:26:24;;;;;;;7.65;6.90;;;;;;;6.18;79.68;98797.75;1703754;82;21215;-59
2021/04/20 01:28:52;;;;;;;10.63;8.23;;;;;;;6.09;79.78;98797.89;1676695;84;21105;-57
2021/04/20 01:31:19;;;;;;;9.98;7.37;;;;;;;6.00;79.93;98790.89;1703647;82;21141;-58
2021/04/20 01:33:47;;;;;;;8.13;7.25;;;;;;;5.92;79.87;98786.89;1670613;84;21683;-58
2021/04/20 01:36:18;;;;;;;8.95;7.15;;;;;;;5.81;79.89;98787.16;1676289;84;21475;-57
2021/04/20 01:38:48;;;;;;;8.98;8.08;;;;;;;5.71;80.20;98784.61;1703774;82;22381;-57
2021/04/20 01:41:19;;;;;;;8.50;7.17;;;;;;;5.61;80.64;98786.05;1703743;82;21200;-59
2021/04/20 01:43:49;;;;;;;7.87;7.17;;;;;;;5.57;81.23;98785.20;1672981;84;22098;-58
2021/04/20 01:46:17;;;;;;;7.17;6.45;;;;;;;5.56;81.40;98786.17;1703790;82;21250;-57
2021/04/20 01:48:45;;;;;;;7.33;6.67;;;;;;;5.52;81.69;98788.80;1703727;82;23609;-57
2021/04/20 01:51:14;;;;;;;8.03;6.95;;;;;;;5.49;81.86;98782.50;1703652;82;21034;-60
2021/04/20 01:53:41;;;;;;;8.88;7.30;;;;;;;5.48;82.13;98783.48;1681583;84;21133;-59
2021/04/20 01:56:10;;;;;;;8.03;7.25;;;;;;;5.44;82.39;98776.38;1703701;82;21145;-59
2021/04/20 01:58:40;;;;;;;7.87;7.12;;;;;;;5.41;82.59;98784.60;1703792;82;21143;-57
2021/04/20 02:01:13;;;;;;;8.43;7.55;;;;;;;5.40;82.85;98788.69;1675915;82;22171;-57
2021/04/20 02:03:44;;;;;;;8.00;7.20;;;;;;;5.41;82.71;98785.09;1694788;82;22404;-58
2021/04/20 02:06:12;;;;;;;7.85;7.12;;;;;;;5.37;82.38;98788.52;1702972;82;21089;-57
2021/04/20 02:08:40;;;;;;;8.23;7.25;;;;;;;5.30;82.15;98790.12;1694369;83;21098;-57
2021/04/20 02:11:11;;;;;;;7.90;6.85;;;;;;;5.24;82.41;98789.92;1686895;83;21177;-59
2021/04/20 02:13:39;;;;;;;7.78;6.97;;;;;;;5.21;82.82;98782.31;1685964;83;22190;-57
2021/04/20 02:16:07;;;;;;;10.43;7.67;;;;;;;5.24;83.43;98787.28;1685793;83;21069;-59
2021/04/20 02:18:44;;;;;;;8.58;7.75;;;;;;;5.28;83.61;98790.77;1688027;83;21145;-58
2021/04/20 02:21:13;;;;;;;8.30;7.50;;;;;;;5.33;83.63;98788.98;1679369;83;21086;-57
2021/04/20 02:23:42;;;;;;;8.95;7.90;;;;;;;5.37;83.72;98792.98;1689669;83;21137;-59
2021/04/20 02:26:11;;;;;;;8.80;7.40;;;;;;;5.38;83.49;98789.34;1687824;83;21390;-58
2021/04/20 02:28:39;;;;;;;8.33;7.53;;;;;;;5.34;83.15;98793.28;1689096;83;21164;-58
2021/04/20 02:31:08;;;;;;;7.67;6.42;;;;;;;5.28;82.67;98793.89;1688126;83;21141;-57
2021/04/20 02:33:37;;;;;;;7.87;7.08;;;;;;;5.21;82.58;98787.09;1688893;83;21117;-59
2021/04/20 02:36:06;;;;;;;8.98;7.58;;;;;;;5.14;82.55;98790.47;1688247;83;21165;-58
2021/04/20 02:38:34;;;;;;;9.63;8.13;;;;;;;5.06;82.47;98786.48;1688505;83;22304;-57
2021/04/20 02:41:04;;;;;;;9.28;8.13;;;;;;;4.97;82.64;98790.36;1671038;83;20967;-59
2021/04/20 02:43:33;;;;;;;12.80;7.90;;;;;;;4.92;82.78;98793.94;1688470;83;21006;-57
2021/04/20 02:46:02;;;;;;;10.98;7.58;;;;;;;4.86;82.92;98785.79;1689103;83;21132;-57
2021/04/20 02:48:31;;;;;;;9.68;7.95;;;;;;;4.80;83.13;98786.38;1687754;83;21153;-57
2021/04/20 02:50:59;;;;;;;11.20;8.75;;;;;;;4.74;83.29;98790.48;1689404;83;21202;-57
2021/04/20 02:53:26;;;;;;;9.40;8.60;;;;;;;4.66;83.41;98785.12;1667109;83;21208;-58
2021/04/20 02:55:56;;;;;;;9.08;7.70;;;;;;;4.63;83.93;98786.73;1683901;83;21169;-58
2021/04/20 02:58:27;;;;;;;8.15;7.35;;;;;;;4.60;83.93;98780.44;1691203;83;21571;-58
2021/04/20 03:01:16;;;;;;;8.85;7.92;;;;;;;4.56;84.00;98783.53;1690498;83;21144;-59
2021/04/20 03:03:38;;;;;;;8.73;7.90;;;;;;;4.48;84.13;98782.13;1688738;83;21180;-58
2021/04/20 03:06:07;;;;;;;9.70;8.73;;;;;;;4.41;84.42;98783.70;1689801;83;21141;-57
2021/04/20 03:08:35;;;;;;;10.13;8.80;;;;;;;4.32;84.62;98776.20;1695759;82;21252;-58
2021/04/20 03:11:14;;;;;;;10.25;9.33;;;;;;;4.27;85.18;98776.65;1711149;83;21088;-59
2021/04/20 03:13:38;;;;;;;14.53;9.63;;;;;;;4.25;85.73;98778.58;1712228;83;21152;-60
2021/04/20 03:16:07;;;;;;;12.95;9.85;;;;;;;4.27;86.29;98777.12;1704690;83;21483;-57
2021/04/20 03:18:35;;;;;;;10.05;8.58;;;;;;;4.31;86.60;98778.48;1690289;83;21674;-59
2021/04/20 03:21:11;;;;;;;10.58;9.28;;;;;;;4.33;86.52;98777.83;1719543;83;21072;-58
2021/04/20 03:23:39;;;;;;;9.38;8.45;;;;;;;4.23;85.65;98785.80;1714530;83;21205;-58
2021/04/20 03:26:27;;;;;;;9.55;8.43;;;;;;;4.10;85.67;98785.31;1669243;84;21283;-57
2021/04/20 03:28:59;;;;;;;11.97;8.28;;;;;;;3.97;85.79;98784.82;1654632;84;21623;-60
2021/04/20 03:31:27;;;;;;;11.60;8.20;;;;;;;3.88;85.97;98780.92;1670759;84;21157;-56
2021/04/20 03:34:03;;;;;;;17.17;8.95;;;;;;;3.84;86.49;98779.54;1668959;84;21127;-56
2021/04/20 03:36:33;;;;;;;9.08;8.15;;;;;;;3.85;87.03;98782.52;1672558;84;22043;-59
2021/04/20 03:39:14;;;;;;;10.72;8.85;;;;;;;3.86;86.78;98782.88;1661286;84;21159;-57
2021/04/20 03:41:57;;;;;;;12.63;8.43;;;;;;;3.85;87.04;98773.31;1668735;84;22321;-58
2021/04/20 03:44:27;;;;;;;10.03;8.35;;;;;;;3.87;87.18;98784.52;1668892;84;20985;-58
2021/04/20 03:47:00;;;;;;;9.18;8.28;;;;;;;3.89;87.43;98784.72;1691569;84;21149;-57
2021/04/20 03:49:34;;;;;;;12.33;9.10;;;;;;;3.96;87.77;98783.66;1683595;84;21590;-57
2021/04/20 03:52:01;;;;;;;21.35;15.48;;;;;;;4.02;87.96;98779.11;1667107;84;21193;-57
2021/04/20 03:54:30;;;;;;;21.17;11.38;;;;;;;4.09;88.28;98782.84;1639632;86;22023;-56
2021/04/20 03:56:59;;;;;;;21.07;10.90;;;;;;;4.15;88.55;98774.34;1667876;84;21035;-57
2021/04/20 03:59:27;;;;;;;12.82;9.20;;;;;;;4.21;88.74;98773.28;1667979;84;21258;-58
2021/04/20 04:01:57;;;;;;;17.27;10.75;;;;;;;4.28;88.73;98774.81;1649921;84;21186;-58
2021/04/20 04:04:25;;;;;;;13.48;10.30;;;;;;;4.31;88.46;98775.36;1661915;84;21604;-58
2021/04/20 04:06:53;;;;;;;12.58;9.08;;;;;;;4.35;88.50;98770.12;1668168;84;22304;-57
2021/04/20 04:09:22;;;;;;;11.63;10.38;;;;;;;4.39;88.31;98773.30;1669419;84;21057;-59
2021/04/20 04:11:55;;;;;;;10.98;9.55;;;;;;;4.42;87.84;98772.17;1671507;84;21175;-59
2021/04/20 04:14:26;;;;;;;10.88;9.73;;;;;;;4.41;87.33;98774.48;1672672;85;21109;-59
2021/04/20 04:16:58;;;;;;;11.65;8.85;;;;;;;4.39;87.03;98773.30;1653901;85;21486;-56
2021/04/20 04:19:23;;;;;;;14.68;8.35;;;;;;;4.41;87.13;98767.91;1656787;85;21231;-58
2021/04/20 04:21:53;;;;;;;15.28;10.53;;;;;;;4.42;87.05;98761.16;1670745;84;21190;-59
2021/04/20 04:24:20;;;;;;;15.13;9.40;;;;;;;4.47;87.12;98765.48;1674365;84;21188;-58
2021/04/20 04:26:53;;;;;;;15.20;11.35;;;;;;;4.54;87.31;98763.07;1672520;84;21242;-58
2021/04/20 04:29:20;;;;;;;15.98;9.90;;;;;;;4.62;87.41;98758.72;1672731;85;21196;-59
2021/04/20 04:31:48;;;;;;;12.55;11.25;;;;;;;4.70;87.50;98757.48;1672133;84;21230;-58
2021/04/20 04:34:17;;;;;;;12.03;9.95;;;;;;;4.77;87.58;98747.98;1672555;84;21197;-58
2021/04/20 04:36:44;;;;;;;11.60;10.45;;;;;;;4.86;87.85;98751.05;1672601;84;20979;-62
2021/04/20 04:39:16;;;;;;;14.68;9.65;;;;;;;4.95;88.04;98754.07;1672526;85;21142;-59
2021/04/20 04:41:45;;;;;;;13.72;9.65;;;;;;;5.04;88.09;98756.30;1670253;84;21591;-61
2021/04/20 04:44:12;;;;;;;21.70;10.28;;;;;;;5.14;88.31;98757.51;1672549;84;22144;-56
2021/04/20 04:46:45;;;;;;;13.85;9.80;;;;;;;5.24;88.09;98747.72;1669498;85;21127;-57
2021/04/20 04:49:12;;;;;;;18.12;10.23;;;;;;;5.34;87.86;98759.00;1653690;85;21044;-60
2021/04/20 04:51:40;;;;;;;13.45;11.25;;;;;;;5.43;87.79;98754.09;1670120;84;21629;-60
2021/04/20 04:54:11;;;;;;;14.53;10.68;;;;;;;5.52;87.64;98754.02;1672214;84;21130;-58
2021/04/20 04:56:42;;;;;;;12.90;11.70;;;;;;;5.61;87.67;98746.46;1672673;85;22356;-58
2021/04/20 04:59:11;;;;;;;12.00;10.90;;;;;;;5.73;87.80;98744.88;1672494;84;21601;-58
2021/04/20 05:01:39;;;;;;;12.98;11.38;;;;;;;5.84;87.77;98744.09;1672081;84;21144;-57
2021/04/20 05:04:11;;;;;;;17.45;12.58;;;;;;;5.97;87.80;98748.47;1647930;85;21193;-57
2021/04/20 05:06:48;;;;;;;15.23;12.73;;;;;;;6.13;87.81;98744.58;1672532;85;21111;-60
2021/04/20 05:09:18;;;;;;;21.65;13.55;;;;;;;6.32;87.61;98742.66;1672010;85;21269;-60
2021/04/20 05:11:46;;;;;;;22.00;12.47;;;;;;;6.52;87.18;98748.81;1667142;84;21025;-60
2021/04/20 05:14:15;;;;;;;17.20;15.50;;;;;;;6.68;86.71;98745.38;1665412;84;21133;-60
2021/04/20 05:16:47;;;;;;;18.32;16.32;;;;;;;6.84;85.69;98744.07;1671135;84;21105;-60
2021/04/20 05:19:25;;;;;;;17.57;15.55;;;;;;;6.98;84.73;98742.11;1702200;82;21081;-57
2021/04/20 05:21:57;;;;;;;23.47;18.92;;;;;;;7.14;84.06;98739.47;1667049;84;21396;-58
2021/04/20 05:24:25;;;;;;;17.85;16.00;;;;;;;7.35;83.20;98745.56;1680621;82;21099;-57
2021/04/20 05:26:57;;;;;;;21.68;17.65;;;;;;;7.57;81.69;98746.66;1693560;82;21152;-60
2021/04/20 05:29:25;;;;;;;24.12;18.12;;;;;;;7.86;80.44;98741.63;1681632;82;21172;-58
2021/04/20 05:31:53;;;;;;;19.12;17.07;;;;;;;8.30;79.48;98738.81;1682765;82;21101;-58
2021/04/20 05:34:21;;;;;;;20.68;15.80;;;;;;;8.86;77.79;98738.97;1651049;84;21394;-57
2021/04/20 05:36:49;;;;;;;17.73;15.93;;;;;;;9.41;76.14;98731.20;1688979;82;21247;-58
2021/04/20 05:39:17;;;;;;;20.02;15.45;;;;;;;10.04;74.11;98724.84;1679689;82;21630;-59
2021/04/20 05:41:44;;;;;;;21.20;14.47;;;;;;;10.60;71.64;98727.29;1680861;82;21148;-59
2021/04/20 05:44:14;;;;;;;15.93;12.10;;;;;;;11.13;69.52;98721.45;1677523;82;21144;-57
2021/04/20 05:46:46;;;;;;;14.38;12.73;;;;;;;11.69;67.54;98726.31;1676852;82;21247;-58
2021/04/20 05:49:15;;;;;;;20.02;10.90;;;;;;;12.19;65.63;98722.49;1642556;84;21175;-59
2021/04/20 05:51:43;;;;;;;17.55;10.05;;;;;;;12.67;63.71;98719.25;1645758;84;21234;-60
2021/04/20 05:54:10;;;;;;;10.38;8.98;;;;;;;12.92;61.49;98716.84;1647667;84;21157;-62
2021/04/20 05:56:40;;;;;;;18.90;9.30;;;;;;;13.16;60.72;98718.96;1643097;84;21141;-60
2021/04/20 05:59:08;;;;;;;9.98;9.03;;;;;;;13.45;59.66;98715.05;1642819;84;21400;-59
2021/04/20 06:01:40;;;;;;;11.88;9.55;;;;;;;13.80;58.68;98719.61;1659557;84;21147;-61
2021/04/20 06:04:09;;;;;;;15.40;8.95;;;;;;;14.18;58.31;98721.34;1669570;84;21174;-61
2021/04/20 06:06:39;;;;;;;15.10;9.08;;;;;;;14.57;56.95;98711.56;1669502;84;21087;-60
2021/04/20 06:09:07;;;;;;;12.65;8.78;;;;;;;14.93;55.22;98710.92;1669709;84;21229;-59
2021/04/20 06:11:35;;;;;;;13.28;8.38;;;;;;;15.15;54.20;98709.51;1669716;84;21168;-58
2021/04/20 06:14:03;;;;;;;9.63;8.18;;;;;;;15.31;52.53;98708.46;1668985;84;21529;-60
2021/04/20 06:16:33;;;;;;;10.78;7.90;;;;;;;15.43;52.50;98704.02;1651545;84;21151;-59
2021/04/20 06:19:01;;;;;;;15.43;7.67;;;;;;;15.55;51.75;98704.16;1647886;85;21069;-65
2021/04/20 06:21:28;;;;;;;8.53;7.25;;;;;;;15.59;51.72;98696.52;1676508;82;21200;-61
2021/04/20 06:23:58;;;;;;;7.40;6.65;;;;;;;15.65;50.85;98694.27;1701172;82;21600;-64
2021/04/20 06:26:26;;;;;;;13.80;6.80;;;;;;;15.62;50.44;98693.36;1693601;82;20974;-60
2021/04/20 06:28:53;;;;;;;9.45;7.33;;;;;;;15.51;49.98;98692.26;1707202;82;21137;-61
2021/04/20 06:31:22;;;;;;;9.78;7.17;;;;;;;15.47;49.78;98691.55;1705397;82;21194;-61
2021/04/20 06:33:51;;;;;;;7.17;6.47;;;;;;;15.48;49.86;98697.22;1708112;82;21148;-61
2021/04/20 06:36:19;;;;;;;7.83;6.28;;;;;;;15.64;49.29;98694.81;1705390;82;21382;-63
2021/04/20 06:38:46;;;;;;;7.40;5.80;;;;;;;15.89;49.85;98688.04;1710516;82;21168;-60
2021/04/20 06:41:14;;;;;;;8.75;6.00;;;;;;;16.32;48.86;98679.91;1684895;82;21602;-61
2021/04/20 06:44:14;;;;;;;6.40;5.90;;;;;;;16.46;47.47;98683.52;1682749;82;21132;-62
2021/04/20 06:46:48;;;;;;;5.53;5.00;;;;;;;16.32;47.47;98679.36;1676644;82;21132;-58
2021/04/20 06:49:26;;;;;;;6.62;5.65;;;;;;;16.16;47.85;98682.69;1683714;82;21161;-57
2021/04/20 06:52:01;;;;;;;7.15;6.40;;;;;;;15.98;48.01;98684.03;1682639;82;21435;-58
2021/04/20 06:54:35;;;;;;;6.70;6.20;;;;;;;15.66;48.91;98683.34;1679284;82;21176;-59
2021/04/20 06:57:13;;;;;;;7.65;6.22;;;;;;;15.43;49.84;98683.13;1676339;82;21545;-57
2021/04/20 07:00:07;;;;;;;7.00;6.20;;;;;;;15.33;50.39;98682.26;1677878;82;21161;-59
2021/04/20 07:03:07;;;;;;;6.97;6.28;;;;;;;15.44;50.44;98676.70;1682108;82;21444;-58
2021/04/20 07:05:47;;;;;;;8.33;6.90;;;;;;;15.62;50.05;98676.77;1679958;82;21071;-59
2021/04/20 07:08:31;;;;;;;7.62;6.83;;;;;;;15.77;49.77;98677.22;1682336;82;20970;-58
2021/04/20 07:10:59;;;;;;;7.28;6.55;;;;;;;15.82;49.27;98681.42;1652733;83;21183;-59
2021/04/20 07:13:27;;;;;;;6.65;6.15;;;;;;;15.88;49.13;98679.17;1688358;82;21669;-59
2021/04/20 07:16:11;;;;;;;6.70;6.20;;;;;;;16.02;48.58;98675.82;1702434;83;21230;-58
2021/04/20 07:19:05;;;;;;;6.90;6.30;;;;;;;16.17;47.46;98676.25;1702578;82;21251;-59
2021/04/20 07:22:10;;;;;;;6.72;6.00;;;;;;;16.29;47.00;98671.78;1709537;82;21216;-59
2021/04/20 07:25:08;;;;;;;5.72;5.30;;;;;;;16.37;46.27;98680.05;1698146;82;21263;-58
2021/04/20 07:27:50;;;;;;;4.95;4.55;;;;;;;16.49;45.69;98674.19;1705865;82;21148;-60
2021/04/20 07:30:45;;;;;;;6.47;4.12;;;;;;;16.49;45.19;98669.65;1710625;82;21251;-58
2021/04/20 07:33:40;;;;;;;4.92;4.47;;;;;;;16.49;44.72;98666.14;1705351;82;21560;-59
2021/04/20 07:36:59;;;;;;;4.70;4.17;;;;;;;16.54;44.07;98664.45;1694118;82;20986;-59
2021/04/20 07:39:48;;;;;;;5.97;4.20;;;;;;;16.69;44.23;98666.70;1693242;82;21185;-58
2021/04/20 07:42:30;;;;;;;5.03;3.72;;;;;;;17.19;43.98;98660.45;1710975;82;21125;-58
2021/04/20 07:45:16;;;;;;;5.12;4.62;;;;;;;17.61;42.92;98657.16;1706577;82;21364;-58
2021/04/20 07:47:47;;;;;;;;;;;;;;;17.74;42.18;98662.30;1710622;82;21220;-58
2021/04/20 07:50:18;;;;;;;5.12;4.60;;;;;;;17.78;42.57;98659.45;1707781;82;20262;-57
2021/04/20 07:53:02;;;;;;;4.50;4.12;;;;;;;17.81;42.03;98658.43;1709330;82;21284;-59
2021/04/20 07:55:40;;;;;;;3.77;3.50;;;;;;;17.47;43.35;98661.92;1703766;82;21144;-60
2021/04/20 07:58:07;;;;;;;4.80;4.22;;;;;;;17.01;44.50;98654.65;1703508;82;21397;-60
2021/04/20 08:00:44;;;;;;;4.67;4.28;;;;;;;16.61;45.61;98655.77;1703828;82;21501;-58
2021/04/20 08:03:26;;;;;;;4.17;3.72;;;;;;;16.30;46.56;98653.28;1703848;82;20943;-59
2021/04/20 08:06:00;;;;;;;5.53;3.87;;;;;;;15.96;47.13;98652.05;1703830;82;21135;-60
2021/04/20 08:08:44;;;;;;;4.25;3.85;;;;;;;15.58;48.02;98651.97;1703842;82;21183;-58
2021/04/20 08:11:46;;;;;;;4.60;4.03;;;;;;;15.28;48.24;98647.27;1703654;82;22197;-58
2021/04/20 08:14:25;;;;;;;6.50;4.67;;;;;;;14.94;48.78;98653.11;1703757;82;20982;-58
2021/04/20 08:17:22;;;;;;;4.28;3.87;;;;;;;14.66;49.23;98650.03;1703828;82;21136;-58
2021/04/20 08:19:58;;;;;;;5.00;3.37;;;;;;;14.48;49.51;98648.09;1703612;82;21080;-58
2021/04/20 08:22:26;;;;;;;4.72;3.55;;;;;;;14.39;49.23;98648.02;1703185;82;21092;-58
2021/04/20 08:25:15;;;;;;;4.33;3.87;;;;;;;14.36;49.26;98648.48;1703742;82;21453;-59
2021/04/20 08:28:26;;;;;;;3.92;3.27;;;;;;;14.48;49.65;98652.61;1703726;82;21013;-58
2021/04/20 08:31:05;;;;;;;4.03;3.62;;;;;;;14.68;49.36;98647.44;1703477;82;21226;-59
2021/04/20 08:33:37;;;;;;;5.15;4.10;;;;;;;14.92;49.18;98642.32;1703732;82;21188;-59
2021/04/20 08:36:17;;;;;;;7.25;4.10;;;;;;;15.30;48.56;98632.33;1703759;82;21132;-59
2021/04/20 08:39:18;;;;;;;3.52;3.25;;;;;;;15.65;47.94;98626.72;1703792;82;21511;-58
2021/04/20 08:41:58;;;;;;;4.55;4.15;;;;;;;15.95;47.17;98624.13;1703668;82;21212;-58
2021/04/20 08:44:35;;;;;;;3.72;3.37;;;;;;;16.27;46.40;98630.12;1703869;82;21591;-58
2021/04/20 08:47:27;;;;;;;5.83;3.30;;;;;;;16.42;46.01;98630.00;1676220;82;21080;-59
2021/04/20 08:50:15;;;;;;;4.30;3.90;;;;;;;16.55;45.59;98625.82;1676420;84;21235;-57
2021/04/20 08:53:40;;;;;;;5.90;4.15;;;;;;;16.80;45.12;98620.78;1703729;82;21204;-59
2021/04/20 08:56:34;;;;;;;4.33;3.98;;;;;;;16.73;44.12;98620.91;1673913;84;21042;-58
2021/04/20 08:59:10;;;;;;;7.12;5.17;;;;;;;16.44;44.46;98623.88;1703870;82;21084;-59
2021/04/20 09:02:01;;;;;;;5.62;5.12;;;;;;;16.08;45.20;98625.81;1703935;82;21698;-60
2021/04/20 09:04:54;;;;;;;6.50;5.30;;;;;;;15.87;46.04;98626.59;1703791;82;21566;-59
2021/04/20 09:07:54;;;;;;;5.45;4.60;;;;;;;15.99;46.11;98620.76;1703779;82;21260;-58
2021/04/20 09:10:33;;;;;;;5.72;4.65;;;;;;;16.37;45.50;98611.60;1703706;82;21156;-58
2021/04/20 09:13:12;;;;;;;5.95;5.45;;;;;;;16.96;44.45;98606.17;1703675;82;21054;-60
2021/04/20 09:15:54;;;;;;;9.40;6.25;;;;;;;17.49;43.15;98606.59;1822933;78;22239;-58
2021/04/20 09:18:38;;;;;;;7.97;5.45;;;;;;;17.64;42.05;98606.42;1791496;79;21018;-57
2021/04/20 09:21:22;;;;;;;7.17;6.58;;;;;;;17.94;42.31;98591.98;1788481;79;21379;-58
2021/04/20 09:24:09;;;;;;;7.97;5.85;;;;;;;18.18;41.89;98594.86;1784597;79;20994;-58
2021/04/20 09:27:19;;;;;;;7.22;5.30;;;;;;;18.52;41.97;98578.28;1779818;79;21257;-58
2021/04/20 09:30:06;;;;;;;5.50;4.42;;;;;;;18.86;40.09;98577.25;1784633;79;21022;-59
2021/04/20 09:32:35;;;;;;;7.37;4.65;;;;;;;19.09;39.44;98575.20;1759163;79;20982;-57
2021/04/20 09:35:05;;;;;;;6.97;4.75;;;;;;;19.12;38.85;98573.89;1804328;77;21405;-58
2021/04/20 09:37:35;;;;;;;4.67;4.30;;;;;;;19.12;38.85;98573.89;1798952;78;20997;-59
2021/04/20 09:40:04;;;;;;;9.30;4.42;;;;;;;18.99;39.76;98576.92;1798756;77;20999;-59
2021/04/20 09:42:34;;;;;;;7.42;4.53;;;;;;;18.60;41.05;98576.54;1759295;80;20992;-59
2021/04/20 09:45:25;;;;;;;5.15;4.22;;;;;;;18.15;42.73;98580.00;1731180;81;21140;-59
2021/04/20 09:48:46;;;;;;;8.03;5.83;;;;;;;17.71;44.76;98572.66;1732256;81;21211;-57
2021/04/20 09:51:20;;;;;;;6.28;4.53;;;;;;;17.05;46.04;98577.89;1734361;81;21039;-59
2021/04/20 09:54:04;;;;;;;6.55;5.00;;;;;;;16.42;47.13;98587.06;1727235;80;21132;-59
2021/04/20 09:56:44;;;;;;;5.30;4.75;;;;;;;16.01;48.17;98580.28;1759983;80;21597;-57
2021/04/20 09:59:42;;;;;;;5.12;4.65;;;;;;;15.35;49.86;98589.09;1764642;80;21116;-59
2021/04/20 10:02:43;;;;;;;5.47;4.22;;;;;;;14.67;52.52;98591.45;1715954;80;21037;-59
2021/04/20 10:05:21;;;;;;;4.62;4.22;;;;;;;14.00;55.34;98604.09;1734201;81;21032;-57
2021/04/20 10:08:33;;;;;;;7.25;4.03;;;;;;;13.56;55.70;98608.34;1734082;80;21094;-58
2021/04/20 10:11:30;;;;;;;4.53;4.10;;;;;;;13.26;57.19;98609.04;1734293;81;20985;-58
2021/04/20 10:14:29;;;;;;;4.00;3.00;;;;;;;12.67;57.95;98618.39;1733382;80;21031;-58
2021/04/20 10:17:21;;;;;;;4.20;2.20;;;;;;;12.10;58.54;98621.53;1726410;80;22239;-59
2021/04/20 10:20:15;;;;;;;1.20;1.10;;;;;;;11.54;58.77;98620.86;1821436;78;22703;-57
2021/04/20 10:23:14;;;;;;;1.72;1.35;;;;;;;11.06;60.05;98618.10;1797977;77;20999;-59
2021/04/20 10:25:50;;;;;;;1.65;1.55;;;;;;;10.67;60.99;98618.28;1734339;79;20985;-59
2021/04/20 10:28:47;;;;;;;2.52;1.27;;;;;;;10.40;62.60;98611.92;1788356;79;21571;-59
2021/04/20 10:31:18;;;;;;;1.75;1.15;;;;;;;10.27;63.47;98599.83;1709021;79;21028;-58
2021/04/20 10:33:49;;;;;;;2.05;1.27;;;;;;;10.21;64.56;98601.41;1733515;80;21587;-59
2021/04/20 10:36:22;;;;;;;3.70;1.90;;;;;;;10.19;66.16;98594.63;1791214;79;20925;-56
2021/04/20 10:38:51;;;;;;;4.83;2.92;;;;;;;10.16;66.81;98594.51;1742744;79;21345;-58
2021/04/20 10:41:33;;;;;;;7.62;5.10;;;;;;;10.17;67.61;98584.67;1778235;79;21585;-56
2021/04/20 10:44:01;;;;;;;5.22;4.70;;;;;;;10.18;68.34;98583.67;1777626;79;21013;-58
2021/04/20 10:46:29;;;;;;;5.30;4.67;;;;;;;10.28;68.69;98581.02;1779163;79;21020;-58
2021/04/20 10:48:58;;;;;;;5.80;4.53;;;;;;;10.42;69.21;98584.13;1757306;79;21198;-60
2021/04/20 10:51:39;;;;;;;4.60;4.17;;;;;;;10.63;69.28;98579.30;1768031;79;21368;-58
2021/04/20 10:54:07;;;;;;;4.15;3.75;;;;;;;10.97;68.73;98582.02;1771364;79;21095;-58
2021/04/20 10:56:35;;;;;;;3.22;2.92;;;;;;;11.44;67.32;98573.30;1758244;79;20929;-58
2021/04/20 10:59:07;;;;;;;2.35;2.15;;;;;;;11.90;65.95;98572.17;1786808;79;20999;-59
2021/04/20 11:01:34;;;;;;;2.47;2.22;;;;;;;12.37;64.36;98575.25;1771417;79;20924;-58
2021/04/20 11:04:05;;;;;;;2.98;2.67;;;;;;;12.83;62.13;98576.59;1769861;78;22107;-58
2021/04/20 11:06:51;;;;;;;2.75;2.55;;;;;;;13.28;61.34;98574.92;1794076;79;20984;-58
2021/04/20 11:09:29;;;;;;;2.70;2.50;;;;;;;13.70;59.28;98587.75;1758311;79;20970;-58
2021/04/20 11:11:57;;;;;;;3.00;2.80;;;;;;;14.06;58.93;98585.83;1786021;79;20924;-59
2021/04/20 11:14:41;;;;;;;2.67;2.47;;;;;;;13.96;58.08;98586.81;1771365;79;21147;-57
2021/04/20 11:17:35;;;;;;;2.42;2.15;;;;;;;13.58;57.86;98590.24;1768749;79;21272;-57
2021/04/20 11:20:17;;;;;;;2.65;2.45;;;;;;;13.14;58.31;98582.13;1767851;79;21178;-60
2021/04/20 11:22:53;;;;;;;2.55;2.30;;;;;;;12.56;59.49;98588.30;1749716;80;20997;-59
2021/04/20 11:25:26;;;;;;;;;;;;;;;12.06;61.08;98589.64;1774503;79;21028;-60
2021/04/20 11:27:58;;;;;;;2.45;2.25;;;;;;;11.70;62.54;98596.59;1758291;79;20219;-57
2021/04/20 11:30:33;;;;;;;2.47;2.27;;;;;;;11.38;63.57;98602.53;1752375;79;22333;-57
2021/04/20 11:33:10;;;;;;;2.40;2.20;;;;;;;11.03;64.07;98599.85;1745743;80;21028;-58
2021/04/20 11:35:47;;;;;;;2.10;1.90;;;;;;;10.77;65.33;98612.13;1716783;80;21135;-59
2021/04/20 11:38:15;;;;;;;2.15;2.02;;;;;;;10.56;66.38;98611.64;1745639;80;21120;-58
2021/04/20 11:40:50;;;;;;;2.30;2.20;;;;;;;10.45;66.87;98612.97;1755623;79;21147;-58
2021/04/20 11:43:18;;;;;;;2.70;2.50;;;;;;;10.38;67.11;98612.09;1745670;80;21366;-57
2021/04/20 11:45:45;;;;;;;2.22;2.02;;;;;;;10.30;67.58;98610.06;1745635;80;21001;-61
2021/04/20 11:48:15;;;;;;;2.33;1.70;;;;;;;10.23;68.19;98609.18;1754894;79;20886;-59
2021/04/20 11:50:58;;;;;;;2.25;2.02;;;;;;;10.15;68.62;98607.47;1745558;79;21184;-58
2021/04/20 11:53:27;;;;;;;2.05;1.95;;;;;;;10.07;68.65;98592.93;1745698;80;21092;-59
2021/04/20 11:55:59;;;;;;;1.92;1.82;;;;;;;9.92;68.98;98602.28;1757213;79;22246;-58
2021/04/20 11:58:34;;;;;;;3.87;3.37;;;;;;;9.89;69.27;98593.86;1745794;80;21100;-57
2021/04/20 12:01:16;;;;;;;5.03;4.58;;;;;;;9.93;70.77;98593.81;1740175;80;21135;-59
2021/04/20 12:03:56;;;;;;;3.62;2.70;;;;;;;9.96;71.76;98579.33;1747560;80;21115;-60
2021/04/20 12:06:24;;;;;;;3.47;3.20;;;;;;;10.03;71.86;98582.38;1748823;80;21142;-59
2021/04/20 12:09:17;;;;;;;3.67;3.35;;;;;;;10.13;71.00;98577.60;1745896;80;21364;-57
2021/04/20 12:11:47;;;;;;;3.37;3.08;;;;;;;10.19;71.84;98574.70;1742726;82;21027;-57